createdAt,value
2022-09-01T00:01:50.768Z,13.31
2022-09-01T00:04:26.184Z,13.34
2022-09-01T00:06:59.978Z,13.34
2022-09-01T00:09:29.334Z,13.43
2022-09-01T00:11:56.421Z,13.38
2022-09-01T00:14:31.142Z,13.35
2022-09-01T00:17:00.673Z,13.25
2022-09-01T00:19:27.676Z,13.14
2022-09-01T00:21:54.799Z,13.13
2022-09-01T00:24:22.672Z,13.07
2022-09-01T00:26:49.736Z,13.02
2022-09-01T00:29:16.761Z,13.00
2022-09-01T00:31:47.185Z,13.01
2022-09-01T00:34:14.435Z,13.03
2022-09-01T00:36:41.607Z,13.07
2022-09-01T00:39:09.445Z,13.05
2022-09-01T00:41:41.864Z,13.10
2022-09-01T00:44:15.821Z,13.14
2022-09-01T00:46:55.215Z,13.20
2022-09-01T00:49:35.346Z,13.20
2022-09-01T00:52:19.479Z,13.18
2022-09-01T00:54:53.243Z,13.20
2022-09-01T00:57:20.831Z,13.27
2022-09-01T01:00:02.156Z,13.24
2022-09-01T01:02:31.087Z,13.21
2022-09-01T01:04:59.676Z,13.22
2022-09-01T01:07:28.563Z,13.18
2022-09-01T01:09:56.466Z,13.20
2022-09-01T01:12:23.964Z,13.17
2022-09-01T01:14:51.096Z,13.17
2022-09-01T01:17:21.846Z,13.08
2022-09-01T01:20:11.423Z,13.02
2022-09-01T01:23:10.211Z,12.91
2022-09-01T01:25:43.200Z,12.85
2022-09-01T01:28:19.129Z,12.91
2022-09-01T01:30:55.226Z,12.92
2022-09-01T01:33:26.705Z,12.93
2022-09-01T01:35:57.717Z,12.85
2022-09-01T01:38:29.105Z,12.84
2022-09-01T01:40:56.910Z,12.83
2022-09-01T01:43:27.695Z,12.73
2022-09-01T01:45:59.195Z,12.65
2022-09-01T01:48:34.737Z,12.61
2022-09-01T01:51:02.463Z,12.61
2022-09-01T01:53:29.765Z,12.59
2022-09-01T01:56:00.149Z,12.51
2022-09-01T01:58:31.503Z,12.46
2022-09-01T02:00:59.084Z,12.36
2022-09-01T02:03:29.032Z,12.38
2022-09-01T02:05:56.515Z,12.34
2022-09-01T02:08:26.244Z,12.33
2022-09-01T02:10:55.626Z,12.23
2022-09-01T02:13:28.693Z,12.21
2022-09-01T02:15:56.304Z,12.20
2022-09-01T02:18:28.627Z,12.15
2022-09-01T02:20:59.171Z,12.01
2022-09-01T02:23:26.454Z,11.80
2022-09-01T02:28:55.605Z,11.67
2022-09-01T02:31:53.756Z,11.60
2022-09-01T02:34:24.335Z,11.51
2022-09-01T02:36:55.413Z,11.52
2022-09-01T02:39:29.100Z,11.48
2022-09-01T02:41:56.805Z,11.50
2022-09-01T02:44:27.918Z,11.48
2022-09-01T02:46:56.134Z,11.53
2022-09-01T02:49:28.727Z,11.54
2022-09-01T02:52:01.838Z,11.56
2022-09-01T02:54:32.472Z,11.51
2022-09-01T02:56:59.888Z,11.52
2022-09-01T02:59:29.680Z,11.56
2022-09-01T03:01:59.964Z,11.53
2022-09-01T03:04:35.640Z,11.52
2022-09-01T03:07:06.139Z,11.51
2022-09-01T03:09:35.582Z,11.48
2022-09-01T03:12:03.976Z,11.54
2022-09-01T03:14:32.122Z,11.62
2022-09-01T03:17:00.805Z,11.63
2022-09-01T03:19:42.072Z,11.71
2022-09-01T03:22:10.640Z,11.85
2022-09-01T03:24:39.280Z,11.97
2022-09-01T03:27:06.378Z,12.16
2022-09-01T03:29:33.681Z,12.26
2022-09-01T03:32:02.668Z,12.25
2022-09-01T03:34:30.096Z,12.26
2022-09-01T03:36:57.586Z,12.21
2022-09-01T03:39:26.848Z,12.30
2022-09-01T03:41:54.120Z,12.37
2022-09-01T03:44:21.413Z,12.42
2022-09-01T03:46:48.616Z,12.41
2022-09-01T03:49:27.933Z,12.44
2022-09-01T03:51:58.451Z,12.35
2022-09-01T03:54:30.515Z,12.37
2022-09-01T03:57:00.197Z,12.54
2022-09-01T03:59:30.188Z,12.62
2022-09-01T04:01:58.043Z,12.65
2022-09-01T04:04:26.051Z,13.49
2022-09-01T04:06:53.461Z,13.27
2022-09-01T04:09:21.259Z,13.30
2022-09-01T04:11:48.581Z,13.37
2022-09-01T04:14:16.898Z,13.45
2022-09-01T04:17:04.351Z,13.53
2022-09-01T04:19:37.076Z,13.69
2022-09-01T04:22:05.200Z,13.79
2022-09-01T04:24:45.373Z,13.67
2022-09-01T04:27:14.133Z,13.51
2022-09-01T04:29:42.147Z,13.37
2022-09-01T04:32:13.161Z,13.31
2022-09-01T04:34:43.932Z,13.21
2022-09-01T04:37:20.779Z,13.09
2022-09-01T04:39:56.685Z,13.04
2022-09-01T04:42:34.402Z,12.97
2022-09-01T04:45:09.855Z,12.88
2022-09-01T04:47:42.172Z,12.81
2022-09-01T04:50:17.945Z,12.93
2022-09-01T04:53:06.249Z,13.01
2022-09-01T04:55:43.727Z,13.03
2022-09-01T04:58:20.978Z,13.09
2022-09-01T05:00:52.504Z,13.05
2022-09-01T05:03:24.635Z,13.09
2022-09-01T05:06:17.861Z,13.16
2022-09-01T05:08:59.849Z,13.12
2022-09-01T05:11:48.636Z,13.20
2022-09-01T05:14:29.026Z,13.27
2022-09-01T05:16:58.960Z,13.25
2022-09-01T05:19:29.964Z,13.26
2022-09-01T05:22:01.210Z,13.05
2022-09-01T05:24:30.539Z,13.21
2022-09-01T05:27:00.577Z,13.13
2022-09-01T05:29:29.809Z,13.13
2022-09-01T05:32:00.570Z,13.15
2022-09-01T05:34:28.119Z,13.22
2022-09-01T05:37:00.113Z,13.35
2022-09-01T05:39:28.748Z,13.40
2022-09-01T05:41:58.527Z,13.47
2022-09-01T05:44:25.761Z,13.57
2022-09-01T05:46:59.416Z,13.63
2022-09-01T05:49:31.634Z,13.57
2022-09-01T05:51:59.150Z,13.62
2022-09-01T05:54:29.269Z,13.47
2022-09-01T05:57:17.490Z,13.51
2022-09-01T05:59:53.937Z,13.51
2022-09-01T06:02:27.420Z,13.45
2022-09-01T06:04:57.468Z,13.50
2022-09-01T06:07:30.427Z,13.55
2022-09-01T06:10:01.202Z,13.58
2022-09-01T06:12:30.413Z,13.59
2022-09-01T06:14:58.099Z,13.61
2022-09-01T06:17:27.245Z,13.66
2022-09-01T06:19:58.203Z,13.67
2022-09-01T06:22:28.277Z,13.70
2022-09-01T06:25:01.746Z,13.87
2022-09-01T06:27:34.103Z,13.95
2022-09-01T06:30:02.955Z,13.87
2022-09-01T06:32:38.694Z,13.89
2022-09-01T06:35:08.602Z,13.98
2022-09-01T06:37:38.613Z,14.14
2022-09-01T06:40:10.834Z,14.24
2022-09-01T06:42:38.059Z,14.23
2022-09-01T06:45:10.464Z,14.21
2022-09-01T06:47:37.935Z,14.24
2022-09-01T06:50:08.654Z,14.20
2022-09-01T06:55:34.130Z,14.22
2022-09-01T06:58:06.522Z,14.21
2022-09-01T07:00:42.102Z,14.03
2022-09-01T07:03:14.041Z,14.02
2022-09-01T07:06:06.984Z,13.92
2022-09-01T07:09:20.040Z,13.83
2022-09-01T07:12:27.902Z,13.87
2022-09-01T07:17:52.321Z,13.84
2022-09-01T07:20:24.780Z,13.87
2022-09-01T07:23:09.921Z,13.81
2022-09-01T07:26:00.513Z,13.74
2022-09-01T07:28:51.027Z,13.94
2022-09-01T07:39:53.110Z,13.98
2022-09-01T07:46:36.622Z,14.02
2022-09-01T07:49:02.637Z,14.24
2022-09-01T07:51:42.115Z,14.28
2022-09-01T07:54:14.050Z,14.21
2022-09-01T07:56:42.119Z,14.38
2022-09-01T07:59:14.863Z,14.46
2022-09-01T08:01:55.803Z,14.62
2022-09-01T08:04:23.478Z,14.58
2022-09-01T08:06:51.277Z,14.62
2022-09-01T08:09:25.251Z,15.05
2022-09-01T08:12:03.258Z,15.14
2022-09-01T08:14:34.401Z,15.34
2022-09-01T08:17:16.895Z,15.40
2022-09-01T08:19:47.162Z,15.81
2022-09-01T08:22:25.667Z,15.98
2022-09-01T08:25:01.751Z,15.96
2022-09-01T08:27:36.398Z,15.89
2022-09-01T08:30:08.938Z,15.50
2022-09-01T08:32:37.821Z,15.21
2022-09-01T08:35:05.653Z,14.81
2022-09-01T08:37:33.205Z,14.78
2022-09-01T08:40:00.404Z,14.94
2022-09-01T08:42:45.994Z,15.01
2022-09-01T08:45:25.326Z,14.93
2022-09-01T08:48:36.743Z,14.85
2022-09-01T08:50:45.539Z,14.69
2022-09-01T08:53:43.581Z,14.65
2022-09-01T08:56:12.297Z,14.78
2022-09-01T08:58:40.289Z,14.99
2022-09-01T09:01:39.643Z,15.19
2022-09-01T09:04:09.996Z,15.33
2022-09-01T09:07:15.051Z,15.38
2022-09-01T09:10:03.810Z,15.51
2022-09-01T09:12:51.613Z,15.53
2022-09-01T09:15:52.099Z,15.35
2022-09-01T09:18:40.499Z,15.42
2022-09-01T09:21:24.163Z,15.48
2022-09-01T09:24:15.624Z,15.54
2022-09-01T09:26:51.388Z,15.40
2022-09-01T09:29:18.959Z,15.32
2022-09-01T09:31:50.374Z,15.25
2022-09-01T09:34:18.841Z,15.23
2022-09-01T09:36:53.995Z,15.20
2022-09-01T09:39:23.360Z,15.13
2022-09-01T09:42:10.204Z,15.04
2022-09-01T09:44:48.984Z,15.04
2022-09-01T09:47:48.506Z,15.00
2022-09-01T09:50:32.016Z,15.19
2022-09-01T09:53:14.990Z,15.31
2022-09-01T09:56:06.178Z,15.31
2022-09-01T10:01:24.338Z,15.04
2022-09-01T10:03:54.151Z,14.96
2022-09-01T10:06:46.975Z,15.01
2022-09-01T10:09:35.955Z,15.08
2022-09-01T10:12:03.594Z,15.15
2022-09-01T10:14:52.381Z,15.19
2022-09-01T10:17:44.509Z,15.20
2022-09-01T10:20:21.289Z,15.02
2022-09-01T10:22:50.709Z,14.79
2022-09-01T10:25:21.933Z,14.88
2022-09-01T10:27:54.230Z,14.75
2022-09-01T10:30:24.779Z,14.53
2022-09-01T10:33:03.447Z,14.57
2022-09-01T10:35:40.654Z,14.77
2022-09-01T10:38:17.152Z,14.86
2022-09-01T10:41:35.743Z,15.33
2022-09-01T10:44:13.591Z,15.71
2022-09-01T10:46:49.379Z,15.82
2022-09-01T10:49:38.119Z,15.70
2022-09-01T10:52:12.944Z,15.59
2022-09-01T10:54:51.131Z,15.52
2022-09-01T10:57:27.695Z,15.53
2022-09-01T10:59:58.447Z,15.69
2022-09-01T11:02:35.641Z,15.59
2022-09-01T11:05:04.900Z,15.56
2022-09-01T11:07:50.718Z,15.67
2022-09-01T11:10:36.079Z,15.67
2022-09-01T11:13:21.868Z,15.34
2022-09-01T11:15:50.106Z,15.34
2022-09-01T11:18:31.533Z,15.17
2022-09-01T11:21:18.222Z,15.19
2022-09-01T11:23:53.611Z,15.27
2022-09-01T11:26:49.321Z,15.52
2022-09-01T11:29:52.184Z,15.68
2022-09-01T11:32:25.772Z,15.74
2022-09-01T11:34:55.267Z,16.02
2022-09-01T11:37:27.537Z,16.17
2022-09-01T11:39:59.237Z,16.08
2022-09-01T11:42:36.226Z,16.10
2022-09-01T11:45:20.752Z,15.99
2022-09-01T11:47:59.158Z,15.88
2022-09-01T11:50:33.852Z,15.81
2022-09-01T11:53:10.430Z,15.99
2022-09-01T11:55:44.303Z,16.16
2022-09-01T11:58:29.112Z,16.26
2022-09-01T12:01:00.642Z,16.22
2022-09-01T12:03:30.413Z,16.10
2022-09-01T12:06:02.567Z,15.96
2022-09-01T12:08:36.295Z,16.02
2022-09-01T12:11:12.726Z,16.00
2022-09-01T12:13:41.805Z,15.98
2022-09-01T12:16:19.384Z,15.93
2022-09-01T12:18:49.967Z,15.89
2022-09-01T12:21:23.248Z,15.91
2022-09-01T12:23:50.763Z,16.09
2022-09-01T12:26:27.411Z,16.18
2022-09-01T12:28:55.050Z,16.13
2022-09-01T12:31:25.203Z,16.29
2022-09-01T12:33:54.847Z,16.43
2022-09-01T12:36:29.966Z,16.56
2022-09-01T12:39:18.609Z,16.71
2022-09-01T12:41:48.631Z,16.76
2022-09-01T12:44:29.954Z,16.61
2022-09-01T12:47:02.771Z,16.36
2022-09-01T12:49:35.654Z,16.34
2022-09-01T12:52:20.417Z,16.22
2022-09-01T12:54:50.420Z,16.17
2022-09-01T12:57:34.458Z,16.23
2022-09-01T13:00:18.223Z,16.09
2022-09-01T13:02:50.919Z,16.07
2022-09-01T13:05:28.426Z,16.21
2022-09-01T13:08:05.192Z,16.24
2022-09-01T13:10:39.604Z,16.26
2022-09-01T13:13:07.661Z,16.31
2022-09-01T13:15:36.511Z,16.30
2022-09-01T13:18:06.290Z,16.37
2022-09-01T13:20:33.397Z,16.34
2022-09-01T13:23:03.162Z,16.17
2022-09-01T13:25:30.836Z,16.14
2022-09-01T13:27:58.119Z,16.10
2022-09-01T13:30:35.486Z,16.01
2022-09-01T13:33:23.297Z,15.89
2022-09-01T13:35:51.304Z,15.87
2022-09-01T13:38:19.361Z,15.84
2022-09-01T13:40:48.295Z,15.81
2022-09-01T13:43:17.645Z,15.84
2022-09-01T13:45:45.111Z,15.85
2022-09-01T13:48:17.144Z,15.88
2022-09-01T13:53:41.239Z,15.73
2022-09-01T13:56:08.360Z,15.70
2022-09-01T13:58:35.316Z,15.65
2022-09-01T14:01:02.625Z,15.55
2022-09-01T14:03:32.303Z,15.53
2022-09-01T14:05:59.749Z,15.47
2022-09-01T14:08:26.837Z,15.43
2022-09-01T14:10:54.182Z,15.34
2022-09-01T14:13:25.103Z,15.28
2022-09-01T14:15:53.825Z,15.31
2022-09-01T14:18:22.297Z,15.20
2022-09-01T14:20:51.966Z,15.09
2022-09-01T14:23:19.852Z,15.12
2022-09-01T14:25:49.988Z,15.06
2022-09-01T14:28:20.692Z,14.99
2022-09-01T14:33:17.645Z,14.90
2022-09-01T14:35:47.686Z,14.72
2022-09-01T14:38:15.116Z,14.67
2022-09-01T14:40:43.304Z,14.65
2022-09-01T14:43:14.446Z,14.51
2022-09-01T14:45:46.103Z,14.37
2022-09-01T14:48:14.733Z,14.27
2022-09-01T14:50:44.204Z,14.21
2022-09-01T14:53:12.556Z,14.25
2022-09-01T14:55:43.585Z,14.25
2022-09-01T14:58:11.178Z,14.30
2022-09-01T15:00:39.268Z,14.39
2022-09-01T15:03:09.860Z,14.43
2022-09-01T15:05:40.366Z,14.41
2022-09-01T15:08:11.933Z,14.26
2022-09-01T15:10:41.358Z,14.32
2022-09-01T15:13:08.480Z,14.32
2022-09-01T15:15:35.570Z,14.30
2022-09-01T15:18:04.956Z,14.24
2022-09-01T15:20:47.220Z,14.17
2022-09-01T15:27:45.623Z,13.64
2022-09-01T15:30:17.282Z,13.54
2022-09-01T15:32:47.627Z,13.47
2022-09-01T15:35:15.729Z,13.42
2022-09-01T15:37:43.209Z,13.34
2022-09-01T15:40:12.923Z,13.21
2022-09-01T15:42:39.988Z,13.19
2022-09-01T15:45:10.946Z,13.15
2022-09-01T15:47:40.379Z,13.19
2022-09-01T15:50:21.152Z,13.26
2022-09-01T15:53:06.108Z,13.28
2022-09-01T15:55:45.029Z,13.28
2022-09-01T15:58:14.808Z,13.26
2022-09-01T16:00:43.803Z,13.14
2022-09-01T16:03:11.626Z,13.16
2022-09-01T16:05:41.154Z,13.08
2022-09-01T16:08:09.957Z,12.99
2022-09-01T16:10:40.083Z,12.97
2022-09-01T16:13:08.259Z,12.93
2022-09-01T16:15:42.351Z,12.93
2022-09-01T16:18:18.306Z,12.92
2022-09-01T16:21:01.348Z,12.80
2022-09-01T16:23:40.856Z,12.74
2022-09-01T16:26:08.110Z,12.72
2022-09-01T16:28:37.214Z,12.69
2022-09-01T16:31:11.201Z,12.63
2022-09-01T16:33:39.365Z,12.55
2022-09-01T16:36:11.076Z,12.48
2022-09-01T16:38:44.404Z,12.42
2022-09-01T16:41:21.240Z,12.35
2022-09-01T16:43:53.501Z,12.29
2022-09-01T16:46:38.764Z,12.21
2022-09-01T16:49:24.055Z,12.14
2022-09-01T16:52:15.498Z,12.09
2022-09-01T16:54:54.792Z,12.05
2022-09-01T16:57:46.073Z,11.97
2022-09-01T17:00:28.770Z,11.89
2022-09-01T17:03:22.693Z,11.99
2022-09-01T17:06:13.538Z,11.95
2022-09-01T17:09:13.174Z,11.85
2022-09-01T17:11:50.545Z,11.89
2022-09-01T17:14:29.039Z,11.97
2022-09-01T17:17:06.811Z,12.03
2022-09-01T17:19:34.475Z,12.08
2022-09-01T17:22:11.356Z,12.14
2022-09-01T17:24:48.272Z,12.14
2022-09-01T17:27:34.179Z,12.10
2022-09-01T17:30:02.304Z,12.07
2022-09-01T17:32:56.183Z,12.12
2022-09-01T17:35:46.489Z,12.09
2022-09-01T17:38:28.576Z,12.11
2022-09-01T17:41:12.385Z,12.13
2022-09-01T17:43:51.341Z,12.19
2022-09-01T17:46:36.739Z,12.25
2022-09-01T17:49:34.636Z,12.29
2022-09-01T17:52:20.600Z,12.30
2022-09-01T17:55:07.220Z,12.27
2022-09-01T17:57:44.574Z,12.13
2022-09-01T18:00:24.988Z,11.99
2022-09-01T18:03:14.934Z,11.93
2022-09-01T18:06:07.216Z,11.85
2022-09-01T18:08:45.884Z,11.86
2022-09-01T18:11:24.976Z,11.88
2022-09-01T18:14:12.513Z,11.87
2022-09-01T18:16:56.080Z,11.84
2022-09-01T18:19:32.361Z,11.84
2022-09-01T18:22:07.724Z,11.82
2022-09-01T18:25:00.097Z,11.77
2022-09-01T18:27:34.920Z,11.71
2022-09-01T18:30:05.296Z,11.64
2022-09-01T18:32:45.367Z,11.59
2022-09-01T18:35:21.519Z,11.57
2022-09-01T18:38:15.505Z,11.60
2022-09-01T18:40:58.470Z,11.64
2022-09-01T18:43:46.413Z,11.66
2022-09-01T18:46:22.049Z,11.74
2022-09-01T18:49:15.581Z,11.83
2022-09-01T18:52:13.992Z,11.86
2022-09-01T18:54:52.822Z,11.89
2022-09-01T18:57:24.329Z,11.90
2022-09-01T19:00:18.731Z,11.83
2022-09-01T19:03:08.450Z,11.86
2022-09-01T19:05:46.650Z,11.89
2022-09-01T19:08:22.541Z,11.91
2022-09-01T19:11:03.267Z,11.88
2022-09-01T19:13:54.938Z,11.94
2022-09-01T19:17:02.194Z,11.84
2022-09-01T19:19:35.243Z,11.71
2022-09-01T19:22:02.370Z,11.60
2022-09-01T19:25:19.891Z,11.54
2022-09-01T19:28:02.340Z,11.49
2022-09-01T19:30:35.437Z,11.45
2022-09-01T19:33:05.362Z,11.44
2022-09-01T19:36:16.051Z,11.37
2022-09-01T19:42:20.872Z,11.30
2022-09-01T19:45:16.893Z,11.25
2022-09-01T19:48:28.155Z,11.16
2022-09-01T19:51:04.572Z,11.06
2022-09-01T19:53:45.424Z,11.05
2022-09-01T19:56:28.869Z,11.02
2022-09-01T19:59:14.209Z,10.96
2022-09-01T20:02:00.562Z,10.87
2022-09-01T20:04:57.107Z,10.81
2022-09-01T20:07:31.249Z,10.79
2022-09-01T20:10:14.031Z,10.73
2022-09-01T20:13:11.724Z,10.70
2022-09-01T20:16:18.942Z,10.70
2022-09-01T20:19:01.482Z,10.67
2022-09-01T20:21:28.531Z,10.71
2022-09-01T20:24:05.501Z,10.70
2022-09-01T20:26:47.800Z,10.67
2022-09-01T20:29:26.822Z,10.69
2022-09-01T20:31:58.768Z,10.67
2022-09-01T20:35:09.286Z,10.68
2022-09-01T20:37:45.194Z,10.75
2022-09-01T20:40:27.163Z,10.82
2022-09-01T20:43:06.681Z,10.87
2022-09-01T20:45:34.096Z,10.93
2022-09-01T20:48:04.207Z,10.92
2022-09-01T20:50:43.583Z,10.93
2022-09-01T20:53:16.934Z,10.87
2022-09-01T20:55:46.876Z,10.86
2022-09-01T20:58:23.116Z,10.87
2022-09-01T21:01:25.607Z,10.85
2022-09-01T21:04:01.392Z,10.78
2022-09-01T21:06:55.800Z,10.66
2022-09-01T21:10:05.936Z,10.58
2022-09-01T21:12:45.974Z,10.51
2022-09-01T21:15:22.224Z,10.42
2022-09-01T21:17:52.128Z,10.37
2022-09-01T21:20:36.133Z,10.33
2022-09-01T21:23:03.783Z,10.26
2022-09-01T21:25:34.331Z,10.10
2022-09-01T21:28:07.528Z,10.11
2022-09-01T21:30:37.089Z,10.10
2022-09-01T21:33:05.147Z,10.03
2022-09-01T21:35:32.165Z,9.95
2022-09-01T21:37:59.287Z,9.94
2022-09-01T21:40:26.811Z,9.90
2022-09-01T21:43:05.736Z,9.82
2022-09-01T21:45:36.231Z,9.75
2022-09-01T21:48:03.871Z,9.69
2022-09-01T21:50:31.023Z,9.65
2022-09-01T21:53:00.834Z,9.61
2022-09-01T21:55:28.293Z,9.54
2022-09-01T21:57:55.917Z,9.52
2022-09-01T22:00:36.668Z,9.50
2022-09-01T22:03:04.237Z,9.44
2022-09-01T22:05:31.309Z,9.47
2022-09-01T22:07:59.076Z,9.38
2022-09-01T22:10:28.229Z,9.39
2022-09-01T22:12:58.106Z,9.39
2022-09-01T22:15:28.482Z,9.38
2022-09-01T22:17:57.663Z,9.26
2022-09-01T22:20:26.140Z,9.30
2022-09-01T22:22:54.826Z,9.25
2022-09-01T22:25:24.054Z,9.23
2022-09-01T22:27:51.258Z,9.28
2022-09-01T22:30:19.398Z,9.31
2022-09-01T22:32:48.081Z,9.26
2022-09-01T22:35:16.840Z,9.24
2022-09-01T22:37:44.446Z,9.27
2022-09-01T22:40:12.806Z,9.34
2022-09-01T22:42:40.026Z,9.42
2022-09-01T22:45:08.670Z,9.51
2022-09-01T22:47:38.268Z,9.61
2022-09-01T22:50:09.806Z,9.65
2022-09-01T22:52:37.348Z,9.78
2022-09-01T22:55:05.515Z,9.91
2022-09-01T22:57:32.849Z,9.99
2022-09-01T22:59:59.820Z,10.06
2022-09-01T23:02:28.552Z,10.11
2022-09-01T23:04:55.755Z,10.13
2022-09-01T23:07:22.835Z,10.12
2022-09-01T23:09:49.818Z,10.19
2022-09-01T23:12:17.019Z,10.28
2022-09-01T23:14:44.063Z,10.32
2022-09-01T23:17:12.053Z,10.34
2022-09-01T23:19:39.082Z,10.24
2022-09-01T23:22:06.108Z,10.23
2022-09-01T23:24:34.356Z,10.25
2022-09-01T23:27:01.398Z,10.23
2022-09-01T23:29:28.602Z,10.24
2022-09-01T23:31:56.451Z,10.20
2022-09-01T23:34:26.430Z,10.20
2022-09-01T23:36:53.406Z,10.21
2022-09-01T23:39:22.749Z,10.25
2022-09-01T23:41:49.774Z,10.27
2022-09-01T23:44:16.901Z,10.25
2022-09-01T23:46:46.479Z,10.28
2022-09-01T23:49:16.020Z,10.33
2022-09-01T23:51:44.082Z,10.34
2022-09-01T23:54:12.061Z,10.35
2022-09-01T23:56:39.629Z,10.40
2022-09-01T23:59:07.802Z,10.36
